createdAt,value
2023-01-30T00:01:36.362Z,80.50
2023-01-30T00:04:03.726Z,82.31
2023-01-30T00:06:32.748Z,80.84
2023-01-30T00:08:59.980Z,79.79
2023-01-30T00:11:30.290Z,81.90
2023-01-30T00:13:57.764Z,81.52
2023-01-30T00:16:25.369Z,79.69
2023-01-30T00:18:52.752Z,80.06
2023-01-30T00:21:20.085Z,81.56
2023-01-30T00:23:48.847Z,81.77
2023-01-30T00:26:16.115Z,81.86
2023-01-30T00:28:43.581Z,82.73
2023-01-30T00:31:11.059Z,83.78
2023-01-30T00:33:39.588Z,83.73
2023-01-30T00:36:07.746Z,82.78
2023-01-30T00:38:35.252Z,81.45
2023-01-30T00:41:04.241Z,82.04
2023-01-30T00:43:50.050Z,80.94
2023-01-30T00:46:43.393Z,80.02
2023-01-30T00:49:11.023Z,80.78
2023-01-30T00:51:38.522Z,82.72
2023-01-30T00:54:05.849Z,80.63
2023-01-30T00:56:34.634Z,81.56
2023-01-30T00:59:02.259Z,80.73
2023-01-30T01:01:29.619Z,80.53
2023-01-30T01:03:57.174Z,81.68
2023-01-30T01:06:24.753Z,80.84
2023-01-30T01:08:52.001Z,80.58
2023-01-30T01:11:25.714Z,82.42
2023-01-30T01:13:55.869Z,83.13
2023-01-30T01:16:23.816Z,80.77
2023-01-30T01:18:51.971Z,81.13
2023-01-30T01:21:20.429Z,81.47
2023-01-30T01:23:50.610Z,82.47
2023-01-30T01:26:18.096Z,82.24
2023-01-30T01:28:47.277Z,82.10
2023-01-30T01:31:17.613Z,82.01
2023-01-30T01:33:45.148Z,82.77
2023-01-30T01:36:20.086Z,82.43
2023-01-30T01:38:56.911Z,80.45
2023-01-30T01:41:24.371Z,80.97
2023-01-30T01:44:04.963Z,83.85
2023-01-30T01:46:37.233Z,81.82
2023-01-30T01:49:12.682Z,81.34
2023-01-30T01:51:43.195Z,83.24
2023-01-30T01:54:16.271Z,82.04
2023-01-30T01:56:45.911Z,82.48
2023-01-30T01:59:20.769Z,83.47
2023-01-30T02:01:52.174Z,82.14
2023-01-30T02:04:39.571Z,81.53
2023-01-30T02:07:07.649Z,82.89
2023-01-30T02:09:35.332Z,82.73
2023-01-30T02:12:04.836Z,82.93
2023-01-30T02:14:34.238Z,80.43
2023-01-30T02:17:03.106Z,81.29
2023-01-30T02:19:39.359Z,82.34
2023-01-30T02:22:42.737Z,83.50
2023-01-30T02:25:52.049Z,82.96
2023-01-30T02:28:48.025Z,82.60
2023-01-30T02:31:36.686Z,83.41
2023-01-30T02:34:20.517Z,82.74
2023-01-30T02:36:57.549Z,82.72
2023-01-30T02:39:38.137Z,81.90
2023-01-30T02:42:12.146Z,82.99
2023-01-30T02:44:50.432Z,83.35
2023-01-30T02:47:24.577Z,81.97
2023-01-30T02:49:57.343Z,81.97
2023-01-30T02:52:25.707Z,84.53
2023-01-30T02:54:53.124Z,84.40
2023-01-30T02:57:21.594Z,82.19
2023-01-30T02:59:51.829Z,81.35
2023-01-30T03:02:42.429Z,83.48
2023-01-30T03:05:27.402Z,82.06
2023-01-30T03:08:04.933Z,82.52
2023-01-30T03:10:38.527Z,83.43
2023-01-30T03:13:12.324Z,82.95
2023-01-30T03:15:43.097Z,81.88
2023-01-30T03:18:12.190Z,82.50
2023-01-30T03:20:41.381Z,82.75
2023-01-30T03:23:09.612Z,83.81
2023-01-30T03:25:39.535Z,83.70
2023-01-30T03:28:08.431Z,83.08
2023-01-30T03:30:36.019Z,83.68
2023-01-30T03:33:03.442Z,80.99
2023-01-30T03:35:32.631Z,82.47
2023-01-30T03:37:59.910Z,83.46
2023-01-30T03:40:27.569Z,81.30
2023-01-30T03:42:55.091Z,83.72
2023-01-30T03:45:22.405Z,83.91
2023-01-30T03:47:49.967Z,84.41
2023-01-30T03:50:17.622Z,84.22
2023-01-30T03:52:46.812Z,82.92
2023-01-30T03:55:14.371Z,83.31
2023-01-30T03:57:41.662Z,83.20
2023-01-30T04:00:10.367Z,84.64
2023-01-30T04:02:38.826Z,84.65
2023-01-30T04:05:06.665Z,84.76
2023-01-30T04:07:34.175Z,85.61
2023-01-30T04:10:02.969Z,85.46
2023-01-30T04:12:30.255Z,84.99
2023-01-30T04:14:57.817Z,85.19
2023-01-30T04:17:25.359Z,84.62
2023-01-30T04:19:52.761Z,85.08
2023-01-30T04:22:20.212Z,85.38
2023-01-30T04:24:47.445Z,84.19
2023-01-30T04:27:16.315Z,85.06
2023-01-30T04:29:43.738Z,85.39
2023-01-30T04:32:10.973Z,84.43
2023-01-30T04:34:38.346Z,84.96
2023-01-30T04:37:05.514Z,84.94
2023-01-30T04:39:33.301Z,85.67
2023-01-30T04:42:00.700Z,85.25
2023-01-30T04:44:29.345Z,85.13
2023-01-30T04:46:57.011Z,86.49
2023-01-30T04:49:24.605Z,85.15
2023-01-30T04:51:51.971Z,83.59
2023-01-30T04:54:19.327Z,85.49
2023-01-30T04:56:46.622Z,85.12
2023-01-30T04:59:13.985Z,85.36
2023-01-30T05:01:43.128Z,85.31
2023-01-30T05:04:10.789Z,84.36
2023-01-30T05:06:38.283Z,85.34
2023-01-30T05:09:06.324Z,84.54
2023-01-30T05:11:33.950Z,84.55
2023-01-30T05:14:01.441Z,85.12
2023-01-30T05:16:29.923Z,84.58
2023-01-30T05:18:58.555Z,83.88
2023-01-30T05:21:30.783Z,84.45
2023-01-30T05:23:58.326Z,84.99
2023-01-30T05:26:26.341Z,84.80
2023-01-30T05:28:55.334Z,84.90
2023-01-30T05:31:23.092Z,84.38
2023-01-30T05:33:52.544Z,84.41
2023-01-30T05:36:23.705Z,83.45
2023-01-30T05:38:51.151Z,84.64
2023-01-30T05:41:19.322Z,84.85
2023-01-30T05:43:50.492Z,83.08
2023-01-30T05:46:18.197Z,84.72
2023-01-30T05:48:45.896Z,83.35
2023-01-30T05:51:19.051Z,84.38
2023-01-30T05:53:48.085Z,85.28
2023-01-30T05:56:15.996Z,84.85
2023-01-30T05:58:43.750Z,82.92
2023-01-30T06:01:13.041Z,83.24
2023-01-30T06:03:40.703Z,83.92
2023-01-30T06:06:08.313Z,83.01
2023-01-30T06:08:36.120Z,82.85
2023-01-30T06:11:08.338Z,82.97
2023-01-30T06:13:35.876Z,81.99
2023-01-30T06:16:07.108Z,83.97
2023-01-30T06:18:34.619Z,82.59
2023-01-30T06:21:03.924Z,82.47
2023-01-30T06:23:35.227Z,83.83
2023-01-30T06:26:06.264Z,83.17
2023-01-30T06:28:35.816Z,84.24
2023-01-30T06:31:03.477Z,83.44
2023-01-30T06:33:30.814Z,83.81
2023-01-30T06:35:59.603Z,81.91
2023-01-30T06:38:27.135Z,82.96
2023-01-30T06:40:54.422Z,82.42
2023-01-30T06:43:23.357Z,82.52
2023-01-30T06:45:50.895Z,83.05
2023-01-30T06:48:18.636Z,84.42
2023-01-30T06:50:46.741Z,84.89
2023-01-30T06:53:14.503Z,84.63
2023-01-30T06:55:41.897Z,84.15
2023-01-30T06:58:10.911Z,83.21
2023-01-30T07:00:40.846Z,83.82
2023-01-30T07:03:11.153Z,83.69
2023-01-30T07:05:39.385Z,83.45
2023-01-30T07:08:07.275Z,80.73
2023-01-30T07:10:36.069Z,80.38
2023-01-30T07:13:03.929Z,80.41
2023-01-30T07:15:31.559Z,82.05
2023-01-30T07:18:00.514Z,82.66
2023-01-30T07:20:30.126Z,82.37
2023-01-30T07:22:58.130Z,82.93
2023-01-30T07:25:29.688Z,82.86
2023-01-30T07:27:58.753Z,82.40
2023-01-30T07:30:27.531Z,83.29
2023-01-30T07:32:57.939Z,82.70
2023-01-30T07:35:28.091Z,80.17
2023-01-30T07:37:55.691Z,81.60
2023-01-30T07:40:23.853Z,82.22
2023-01-30T07:42:58.760Z,80.96
2023-01-30T07:45:26.367Z,79.63
2023-01-30T07:47:54.461Z,79.14
2023-01-30T07:50:21.679Z,78.51
2023-01-30T07:52:50.314Z,78.81
2023-01-30T07:55:17.909Z,77.70
2023-01-30T07:57:45.714Z,78.41
2023-01-30T08:00:14.330Z,77.51
2023-01-30T08:02:41.764Z,78.40
2023-01-30T08:05:09.838Z,77.26
2023-01-30T08:07:37.166Z,77.02
2023-01-30T08:10:07.131Z,76.52
2023-01-30T08:12:34.597Z,76.64
2023-01-30T08:15:01.869Z,75.90
2023-01-30T08:17:29.423Z,75.18
2023-01-30T08:19:56.682Z,75.92
2023-01-30T08:22:24.117Z,74.92
2023-01-30T08:24:51.703Z,74.83
2023-01-30T08:27:20.463Z,74.83
2023-01-30T08:29:47.785Z,75.23
2023-01-30T08:32:15.968Z,74.49
2023-01-30T08:34:43.531Z,74.49
2023-01-30T08:37:10.748Z,75.26
2023-01-30T08:39:37.983Z,74.56
2023-01-30T08:42:05.492Z,73.61
2023-01-30T08:44:34.308Z,74.59
2023-01-30T08:47:01.649Z,73.39
2023-01-30T08:49:28.913Z,74.14
2023-01-30T08:51:56.394Z,73.77
2023-01-30T08:54:25.591Z,74.03
2023-01-30T08:56:53.303Z,73.52
2023-01-30T08:59:20.701Z,73.89
2023-01-30T09:01:49.573Z,72.94
2023-01-30T09:04:16.886Z,73.33
2023-01-30T09:06:44.274Z,73.30
2023-01-30T09:09:12.043Z,72.35
2023-01-30T09:11:39.498Z,72.00
2023-01-30T09:14:06.663Z,72.37
2023-01-30T09:16:33.938Z,72.01
2023-01-30T09:19:02.588Z,72.99
2023-01-30T09:21:32.104Z,72.35
2023-01-30T09:23:59.415Z,71.59
2023-01-30T09:26:26.654Z,71.49
2023-01-30T09:28:53.979Z,71.44
2023-01-30T09:31:21.466Z,71.88
2023-01-30T09:33:49.193Z,71.66
2023-01-30T09:36:17.854Z,71.13
2023-01-30T09:38:45.085Z,71.82
2023-01-30T09:41:41.263Z,72.23
2023-01-30T09:44:34.952Z,71.94
2023-01-30T09:47:09.933Z,73.02
2023-01-30T09:49:46.141Z,72.99
2023-01-30T09:52:27.227Z,72.47
2023-01-30T09:55:02.117Z,72.86
2023-01-30T09:57:29.860Z,71.88
2023-01-30T10:00:02.827Z,72.87
2023-01-30T10:02:42.427Z,71.32
2023-01-30T10:05:10.455Z,71.11
2023-01-30T10:08:01.289Z,70.93
2023-01-30T10:10:55.054Z,70.78
2023-01-30T10:13:50.666Z,71.42
2023-01-30T10:16:21.410Z,70.83
2023-01-30T10:19:20.518Z,71.53
2023-01-30T10:21:57.618Z,71.20
2023-01-30T10:24:49.074Z,70.06
2023-01-30T10:27:17.737Z,69.95
2023-01-30T10:29:48.047Z,70.41
2023-01-30T10:32:20.287Z,70.51
2023-01-30T10:34:52.105Z,71.60
2023-01-30T10:37:26.666Z,71.99
2023-01-30T10:40:03.268Z,71.13
2023-01-30T10:42:39.456Z,69.63
2023-01-30T10:45:13.778Z,69.34
2023-01-30T10:47:53.367Z,70.32
2023-01-30T10:50:26.230Z,68.16
2023-01-30T10:53:00.227Z,68.20
2023-01-30T10:55:38.117Z,66.03
2023-01-30T10:58:18.388Z,66.90
2023-01-30T11:00:52.367Z,65.09
2023-01-30T11:03:28.625Z,65.04
2023-01-30T11:06:01.039Z,65.53
2023-01-30T11:08:30.181Z,65.38
2023-01-30T11:10:59.863Z,65.27
2023-01-30T11:13:30.683Z,64.23
2023-01-30T11:16:00.158Z,63.83
2023-01-30T11:19:17.304Z,62.89
2023-01-30T11:21:23.444Z,63.59
2023-01-30T11:23:54.651Z,62.50
2023-01-30T11:26:32.065Z,62.31
2023-01-30T11:29:16.883Z,62.75
2023-01-30T11:31:49.889Z,64.45
2023-01-30T11:34:19.136Z,60.98
2023-01-30T11:36:49.971Z,62.41
2023-01-30T11:39:23.456Z,61.30
2023-01-30T11:42:03.667Z,62.85
2023-01-30T11:44:34.368Z,62.05
2023-01-30T11:47:04.802Z,61.64
2023-01-30T11:49:46.407Z,61.51
2023-01-30T11:52:28.668Z,61.96
2023-01-30T11:55:01.375Z,62.86
2023-01-30T11:57:30.255Z,61.91
2023-01-30T12:00:00.782Z,63.42
2023-01-30T12:02:33.911Z,62.62
2023-01-30T12:05:03.058Z,61.23
2023-01-30T12:07:33.046Z,62.44
2023-01-30T12:10:02.087Z,63.06
2023-01-30T12:12:34.332Z,65.02
2023-01-30T12:15:11.821Z,64.65
2023-01-30T12:17:46.151Z,62.40
2023-01-30T12:20:20.363Z,63.82
2023-01-30T12:22:57.820Z,63.54
2023-01-30T12:25:28.122Z,61.97
2023-01-30T12:28:03.374Z,62.47
2023-01-30T12:30:36.886Z,62.41
2023-01-30T12:33:06.830Z,63.17
2023-01-30T12:35:48.175Z,63.42
2023-01-30T12:38:28.328Z,61.92
2023-01-30T12:41:06.734Z,60.65
2023-01-30T12:43:53.104Z,60.57
2023-01-30T12:46:36.876Z,61.90
2023-01-30T12:49:20.524Z,60.06
2023-01-30T12:52:05.106Z,61.23
2023-01-30T12:54:46.006Z,60.27
2023-01-30T12:57:21.587Z,59.59
2023-01-30T13:00:03.828Z,61.16
2023-01-30T13:02:50.037Z,61.42
2023-01-30T13:05:32.551Z,61.51
2023-01-30T13:08:29.903Z,61.47
2023-01-30T13:11:10.095Z,61.00
2023-01-30T13:13:43.201Z,62.24
2023-01-30T13:16:23.328Z,62.04
2023-01-30T13:18:55.625Z,62.29
2023-01-30T13:21:29.265Z,61.67
2023-01-30T13:24:13.885Z,61.89
2023-01-30T13:26:43.718Z,61.99
2023-01-30T13:29:16.053Z,61.35
2023-01-30T13:31:52.048Z,62.28
2023-01-30T13:34:26.664Z,62.39
2023-01-30T13:36:59.536Z,62.60
2023-01-30T13:39:47.166Z,62.17
2023-01-30T13:42:27.138Z,62.91
2023-01-30T13:44:55.785Z,62.70
2023-01-30T13:47:39.786Z,62.53
2023-01-30T13:50:23.293Z,63.17
2023-01-30T13:52:56.847Z,64.62
2023-01-30T13:55:29.781Z,62.84
2023-01-30T13:58:05.908Z,62.81
2023-01-30T14:00:34.951Z,63.94
2023-01-30T14:03:30.678Z,62.05
2023-01-30T14:06:05.065Z,62.51
2023-01-30T14:08:39.696Z,62.31
2023-01-30T14:11:36.156Z,63.14
2023-01-30T14:14:07.297Z,62.87
2023-01-30T14:16:43.589Z,64.21
2023-01-30T14:19:33.753Z,62.17
2023-01-30T14:22:04.948Z,62.32
2023-01-30T14:24:32.248Z,61.62
2023-01-30T14:27:05.579Z,61.30
2023-01-30T14:29:55.799Z,62.31
2023-01-30T14:32:52.877Z,61.27
2023-01-30T14:35:25.086Z,61.84
2023-01-30T14:38:08.889Z,61.77
2023-01-30T14:40:41.178Z,61.72
2023-01-30T14:43:36.373Z,61.27
2023-01-30T14:46:08.638Z,61.25
2023-01-30T14:48:41.739Z,62.88
2023-01-30T14:51:22.805Z,61.43
2023-01-30T14:53:55.224Z,62.02
2023-01-30T14:56:41.388Z,63.01
2023-01-30T14:59:18.410Z,62.65
2023-01-30T15:02:02.747Z,62.28
2023-01-30T15:04:32.939Z,62.57
2023-01-30T15:07:07.868Z,61.16
2023-01-30T15:09:37.234Z,62.35
2023-01-30T15:12:22.699Z,63.21
2023-01-30T15:14:59.011Z,62.74
2023-01-30T15:17:33.175Z,64.24
2023-01-30T15:20:15.988Z,63.24
2023-01-30T15:23:04.303Z,63.48
2023-01-30T15:25:43.604Z,62.76
2023-01-30T15:28:20.700Z,62.35
2023-01-30T15:30:57.485Z,62.36
2023-01-30T15:33:31.470Z,64.34
2023-01-30T15:36:00.367Z,64.99
2023-01-30T15:38:31.944Z,65.07
2023-01-30T15:41:01.894Z,65.66
2023-01-30T15:43:53.158Z,64.03
2023-01-30T15:46:28.726Z,63.05
2023-01-30T15:49:19.603Z,63.70
2023-01-30T15:51:47.345Z,63.79
2023-01-30T15:54:19.492Z,63.35
2023-01-30T15:56:49.887Z,64.53
2023-01-30T15:59:27.726Z,64.73
2023-01-30T16:02:04.322Z,64.99
2023-01-30T16:04:32.259Z,65.46
2023-01-30T16:06:59.756Z,66.03
2023-01-30T16:09:28.391Z,66.80
2023-01-30T16:11:56.312Z,66.45
2023-01-30T16:14:24.025Z,66.34
2023-01-30T16:16:56.021Z,66.63
2023-01-30T16:19:28.821Z,67.71
2023-01-30T16:21:59.117Z,70.25
2023-01-30T16:24:32.179Z,67.64
2023-01-30T16:27:03.089Z,68.57
2023-01-30T16:29:34.731Z,67.43
2023-01-30T16:32:02.355Z,69.07
2023-01-30T16:34:32.122Z,68.15
2023-01-30T16:37:04.550Z,69.07
2023-01-30T16:39:35.141Z,68.31
2023-01-30T16:42:18.827Z,68.12
2023-01-30T16:44:46.174Z,69.33
2023-01-30T16:47:23.608Z,69.82
2023-01-30T16:49:52.975Z,69.04
2023-01-30T16:52:22.973Z,68.48
2023-01-30T16:54:53.950Z,69.02
2023-01-30T16:57:35.177Z,68.46
2023-01-30T17:00:07.396Z,68.93
2023-01-30T17:02:37.614Z,67.84
2023-01-30T17:05:27.227Z,67.97
2023-01-30T17:08:00.612Z,70.08
2023-01-30T17:11:00.023Z,71.09
2023-01-30T17:13:36.316Z,68.15
2023-01-30T17:16:29.578Z,69.94
2023-01-30T17:18:58.385Z,70.78
2023-01-30T17:21:29.294Z,71.67
2023-01-30T17:24:00.009Z,70.81
2023-01-30T17:26:28.069Z,71.81
2023-01-30T17:28:57.202Z,71.55
2023-01-30T17:31:24.910Z,72.12
2023-01-30T17:33:52.300Z,70.68
2023-01-30T17:36:24.206Z,68.80
2023-01-30T17:38:52.156Z,69.64
2023-01-30T17:41:21.171Z,72.94
2023-01-30T17:43:49.859Z,73.31
2023-01-30T17:46:24.308Z,70.94
2023-01-30T17:48:51.931Z,70.19
2023-01-30T17:51:19.434Z,69.92
2023-01-30T17:53:47.058Z,72.97
2023-01-30T17:56:18.966Z,72.64
2023-01-30T17:58:47.585Z,74.38
2023-01-30T18:01:16.433Z,73.26
2023-01-30T18:03:45.269Z,73.30
2023-01-30T18:06:14.664Z,72.06
2023-01-30T18:08:42.787Z,70.82
2023-01-30T18:11:12.119Z,71.71
2023-01-30T18:13:39.896Z,71.58
2023-01-30T18:16:11.596Z,72.82
2023-01-30T18:18:39.230Z,69.83
2023-01-30T18:21:08.193Z,72.74
2023-01-30T18:23:37.450Z,69.92
2023-01-30T18:26:05.440Z,71.90
2023-01-30T18:28:33.218Z,71.08
2023-01-30T18:31:00.811Z,70.89
2023-01-30T18:33:28.272Z,72.60
2023-01-30T18:35:55.847Z,70.90
2023-01-30T18:38:24.911Z,70.48
2023-01-30T18:40:52.397Z,71.49
2023-01-30T18:43:21.393Z,70.80
2023-01-30T18:45:50.141Z,72.06
2023-01-30T18:48:17.731Z,70.31
2023-01-30T18:50:45.465Z,71.12
2023-01-30T18:53:13.025Z,73.32
2023-01-30T18:55:49.556Z,71.78
2023-01-30T18:58:17.074Z,72.68
2023-01-30T19:00:45.383Z,72.40
2023-01-30T19:03:13.046Z,75.12
2023-01-30T19:05:40.652Z,75.76
2023-01-30T19:08:10.614Z,76.75
2023-01-30T19:10:38.234Z,76.53
2023-01-30T19:13:25.680Z,77.08
2023-01-30T19:15:57.962Z,76.39
2023-01-30T19:18:27.178Z,77.64
2023-01-30T19:20:54.782Z,77.84
2023-01-30T19:23:26.592Z,76.30
2023-01-30T19:25:55.081Z,79.04
2023-01-30T19:28:24.318Z,78.85
2023-01-30T19:30:53.710Z,79.84
2023-01-30T19:33:21.257Z,78.72
2023-01-30T19:35:48.923Z,79.60
2023-01-30T19:38:16.846Z,78.40
2023-01-30T19:40:45.687Z,79.47
2023-01-30T19:43:14.306Z,77.40
2023-01-30T19:45:43.234Z,78.64
2023-01-30T19:48:11.333Z,78.97
2023-01-30T19:50:38.896Z,78.81
2023-01-30T19:53:06.590Z,78.45
2023-01-30T19:55:35.284Z,78.04
2023-01-30T19:58:03.659Z,78.38
2023-01-30T20:00:30.950Z,79.92
2023-01-30T20:03:01.221Z,81.42
2023-01-30T20:05:29.245Z,79.64
2023-01-30T20:07:57.096Z,80.54
2023-01-30T20:10:24.907Z,81.25
2023-01-30T20:12:52.517Z,81.32
2023-01-30T20:15:20.565Z,79.44
2023-01-30T20:17:48.066Z,79.72
2023-01-30T20:20:18.184Z,79.74
2023-01-30T20:22:55.659Z,81.66
2023-01-30T20:25:23.116Z,81.63
2023-01-30T20:27:50.757Z,82.41
2023-01-30T20:30:19.837Z,81.85
2023-01-30T20:32:47.743Z,81.98
2023-01-30T20:35:17.908Z,81.89
2023-01-30T20:37:45.419Z,79.83
2023-01-30T20:40:14.353Z,79.30
2023-01-30T20:42:41.861Z,79.25
2023-01-30T20:45:10.317Z,79.58
2023-01-30T20:47:40.605Z,81.32
2023-01-30T20:50:09.387Z,82.18
2023-01-30T20:52:38.779Z,81.90
2023-01-30T20:55:07.355Z,82.96
2023-01-30T20:57:34.952Z,83.79
2023-01-30T21:00:04.493Z,83.98
2023-01-30T21:02:31.892Z,84.17
2023-01-30T21:04:59.749Z,84.04
2023-01-30T21:07:28.783Z,84.26
2023-01-30T21:09:57.817Z,83.80
2023-01-30T21:12:25.719Z,83.48
2023-01-30T21:14:53.406Z,83.03
2023-01-30T21:17:20.992Z,82.26
2023-01-30T21:19:48.387Z,82.23
2023-01-30T21:22:15.620Z,82.83
2023-01-30T21:24:43.329Z,82.58
2023-01-30T21:27:12.018Z,82.68
2023-01-30T21:29:39.555Z,83.68
2023-01-30T21:32:07.115Z,83.85
2023-01-30T21:34:35.335Z,84.08
2023-01-30T21:37:21.104Z,84.14
2023-01-30T21:40:06.992Z,83.25
2023-01-30T21:42:54.244Z,82.30
2023-01-30T21:45:22.420Z,81.38
2023-01-30T21:47:54.269Z,81.71
2023-01-30T21:50:21.775Z,81.02
2023-01-30T21:52:49.413Z,80.18
2023-01-30T21:55:16.848Z,79.18
2023-01-30T21:57:45.665Z,79.23
2023-01-30T22:00:14.194Z,80.61
2023-01-30T22:02:41.439Z,79.66
2023-01-30T22:05:09.691Z,81.51
2023-01-30T22:07:37.553Z,82.17
2023-01-30T22:10:05.480Z,83.64
2023-01-30T22:12:32.899Z,83.26
2023-01-30T22:15:01.663Z,83.18
2023-01-30T22:17:28.933Z,82.87
2023-01-30T22:19:56.336Z,82.42
2023-01-30T22:22:24.824Z,82.79
2023-01-30T22:24:52.398Z,82.86
2023-01-30T22:27:19.717Z,82.34
2023-01-30T22:29:46.931Z,83.25
2023-01-30T22:32:15.637Z,83.96
2023-01-30T22:34:43.003Z,83.61
2023-01-30T22:37:10.315Z,83.97
2023-01-30T22:39:37.570Z,84.39
2023-01-30T22:42:05.251Z,84.02
2023-01-30T22:44:32.504Z,83.92
2023-01-30T22:47:00.004Z,83.88
2023-01-30T22:49:28.720Z,83.58
2023-01-30T22:51:55.958Z,82.90
2023-01-30T22:54:24.990Z,82.93
2023-01-30T22:56:52.767Z,81.26
2023-01-30T22:59:20.081Z,81.52
2023-01-30T23:01:48.446Z,81.04
2023-01-30T23:04:17.420Z,81.09
2023-01-30T23:06:47.211Z,81.21
2023-01-30T23:09:17.410Z,81.51
2023-01-30T23:12:06.644Z,83.43
2023-01-30T23:14:34.026Z,82.96
2023-01-30T23:17:01.384Z,82.15
2023-01-30T23:19:28.779Z,77.69
2023-01-30T23:21:57.577Z,76.58
2023-01-30T23:24:24.908Z,75.59
2023-01-30T23:26:52.416Z,74.46
2023-01-30T23:29:20.658Z,73.30
2023-01-30T23:31:48.105Z,73.28
2023-01-30T23:34:16.950Z,72.21
2023-01-30T23:36:44.972Z,71.44
2023-01-30T23:39:14.438Z,71.88
2023-01-30T23:41:42.682Z,72.49
2023-01-30T23:44:10.426Z,71.31
2023-01-30T23:46:39.982Z,70.94
2023-01-30T23:49:08.723Z,71.96
2023-01-30T23:51:37.762Z,72.84
2023-01-30T23:54:06.085Z,73.44
2023-01-30T23:56:36.377Z,74.95
2023-01-30T23:59:04.467Z,76.07
